• Join FlightAware (Why Join?)
  • Login
  • US Flag 
10:05AM EST


 

Airport Tracker/Info


-or-


 

Live Flight TrackerFlight Track Log ✈ SWA1725 ✈ 11-Apr-2013 ✈ KMDW - KBHM

Flight Track Log - Related Links

Times and Time Zones

All times are in EDT time to prevent confusion due to time zone crossing. See the SWA1725 flight status page for this flight to view local times or setup timezone preferences in your user account.

Time Position Orientation Groundspeed Altitude Reporting Facility
EDT Latitude Longitude Course Direction KTS MPH feet Rate Location/Type
10:13PM 41.7469 -87.7903 177° South 177 204 3,300  Level Chicago Center
10:14PM 41.6947 -87.8364 213° Southwest 219 252 5,600 3,480 Climbing Chicago Center
10:15PM 41.6275 -87.8461 186° South 242 278 10,500 3,540 Climbing Chicago Center
10:16PM 41.5364 -87.8589 186° South 289 333 13,000 2,820 Climbing Chicago Center
10:17PM 41.4433 -87.8739 187° South 330 380 16,300 3,360 Climbing Chicago Center
10:18PM 40.9819 -87.8742 177° South  Level FlightAware Approximate
10:18PM 41.3467 -87.8850 185° South 340 391 19,900  Level Chicago Center
10:19PM 41.2486 -87.8931 184° South 348 400 23,000 2,880 Climbing Chicago Center
10:20PM 41.1500 -87.8900 179° South 354 407 25,900 2,460 Climbing Chicago Center
10:21PM 41.0531 -87.8869 179° South 351 404 28,200 2,340 Climbing Chicago Center
10:22PM 40.9558 -87.8844 179° South 351 404 30,800 2,340 Climbing Chicago Center
10:23PM 40.8639 -87.8806 178° South 336 387 33,000 1,800 Climbing Chicago Center
10:24PM 40.7722 -87.8783 179° South 333 383 34,600 1,920 Climbing Chicago Center
10:25PM 40.6647 -87.8750 179° South 322 371 37,000 1,440 Climbing Chicago Center
10:26PM 40.5758 -87.8714 178° South 322 371 37,600 600 Climbing Chicago Center
10:27PM 40.4825 -87.8697 179° South 336 387 38,300 660 Climbing Chicago Center
10:28PM 40.3850 -87.8667 179° South 352 405 39,000 360 Climbing Chicago Center
10:29PM 40.3189 -87.8619 177° South 347 399 39,000  Level Indianapolis Center
10:30PM 40.2192 -87.8597 179° South 353 406 39,000  Level Indianapolis Center
10:31PM 40.1203 -87.8561 178° South 355 409 39,000  Level Indianapolis Center
10:32PM 40.0222 -87.8525 178° South 353 406 39,000  Level Indianapolis Center
10:33PM 39.9236 -87.8467 177° South 353 406 39,000  Level Indianapolis Center
10:34PM 39.8267 -87.8422 178° South 351 404 39,000  Level Indianapolis Center
10:35PM 39.7086 -87.8367 178° South 351 404 39,000  Level Indianapolis Center
10:36PM 39.6111 -87.8328 178° South 350 403 39,000  Level Indianapolis Center
10:37PM 39.5128 -87.8297 179° South 351 404 39,000  Level Indianapolis Center
10:38PM 39.4150 -87.8250 178° South 351 404 39,000  Level Indianapolis Center
10:39PM 39.3167 -87.8203 178° South 351 404 39,000  Level Indianapolis Center
10:40PM 39.2186 -87.8150 178° South 352 405 39,000  Level Indianapolis Center
10:41PM 39.1206 -87.8128 179° South 352 405 39,000  Level Indianapolis Center
10:42PM 39.0217 -87.7931 171° South 356 410 39,000  Level Indianapolis Center
10:43PM 38.9253 -87.7714 170° South 353 406 39,000  Level Indianapolis Center
10:44PM 38.8283 -87.7528 171° South 351 404 39,000  Level Indianapolis Center
10:45PM 38.7342 -87.7331 171° South 345 397 39,000  Level Indianapolis Center
10:46PM 38.6414 -87.7147 171° South 339 390 39,000  Level Indianapolis Center
10:47PM 38.5497 -87.6967 171° South 335 386 39,000  Level Indianapolis Center
10:48PM 38.4403 -87.6733 171° South 332 382 39,000  Level Indianapolis Center
10:49PM 38.3492 -87.6564 172° South 332 382 39,000  Level Indianapolis Center
10:50PM 38.2575 -87.6372 171° South 332 382 39,000  Level Indianapolis Center
10:51PM 38.1644 -87.6186 171° South 338 389 39,000  Level Indianapolis Center
10:52PM 38.0700 -87.6014 172° South 343 395 39,000  Level Indianapolis Center
10:53PM 37.9753 -87.5814 171° South 344 396 39,000  Level Indianapolis Center
10:54PM 37.8806 -87.5622 171° South 345 397 39,000  Level Indianapolis Center
10:55PM 37.7744 -87.5411 171° South 348 400 39,000  Level Indianapolis Center
10:56PM 37.6772 -87.5231 172° South 349 402 39,000  Level Indianapolis Center
10:57PM 37.6053 -87.5092 171° South 356 410 39,000  Level Memphis Center
10:58PM 37.5133 -87.4889 170° South 350 403 39,000  Level Memphis Center
10:59PM 37.4169 -87.4714 172° South 357 411 39,000  Level Memphis Center
11:00PM 37.3186 -87.4542 172° South 352 405 39,000  Level Memphis Center
11:01PM 37.2244 -87.4317 169° South 352 405 39,000  Level Memphis Center
11:02PM 37.1261 -87.4144 172° South 352 405 39,000  Level Memphis Center
11:03PM 37.0297 -87.3947 171° South 357 411 39,000  Level Memphis Center
11:04PM 36.9419 -87.3797 172° South 352 405 39,000  Level Memphis Center
11:05PM 36.8436 -87.3600 171° South 357 411 39,000  Level Memphis Center
11:06PM 36.7472 -87.3428 172° South 357 411 39,000  Level Memphis Center
11:07PM 36.6467 -87.3233 171° South 357 411 39,000  Level Memphis Center
11:08PM 36.5461 -87.3039 171° South 357 411 39,000  Level Memphis Center
11:09PM 36.4478 -87.2869 172° South 362 417 39,000  Level Memphis Center
11:10PM 36.3453 -87.2678 171° South 367 422 39,000  Level Memphis Center
11:11PM 36.2425 -87.2483 171° South 372 428 39,000  Level Memphis Center
11:12PM 36.1378 -87.2267 171° South 372 428 39,000  Level Memphis Center
11:13PM 36.0331 -87.2078 172° South 372 428 39,000  Level Memphis Center
11:14PM 35.9303 -87.1886 171° South 372 428 39,000  Level Memphis Center
11:15PM 35.8256 -87.1669 170° South 377 434 39,000  Level Memphis Center
11:16PM 35.7103 -87.1458 172° South 383 441 39,000  Level Memphis Center
11:17PM 35.6033 -87.1244 171° South 383 441 39,000  Level Memphis Center
11:18PM 35.4986 -87.1056 172° South 390 449 39,000 -900 Level Memphis Center
11:21PM 35.1506 -87.0378 171° South 388 447 35,200 -1,440 Descending Memphis Center
11:22PM 35.0458 -87.0242 174° South 383 441 32,800 -2,700 Descending Memphis Center
11:23PM 34.9558 -87.0075 171° South 376 433 29,800 -2,700 Descending Memphis Center
11:24PM 34.8425 -86.9867 171° South 364 419 27,500 -2,100 Descending Memphis Center
11:25PM 34.7525 -86.9700 171° South 347 399 25,700 -1,920 Descending Memphis Center
11:26PM 34.6603 -86.9536 172° South 333 383 23,700 -2,160 Descending Memphis Center
11:27PM 34.5742 -86.9344 170° South 328 377 21,400 -3,000 Descending Memphis Center
11:28PM 34.4861 -86.9178 171° South 321 369 17,800 -3,180 Descending Memphis Center
11:29PM 34.3958 -86.9039 173° South 321 369 15,100 -2,400 Descending Memphis Center
11:30PM 34.3036 -86.8850 170° South 326 375 13,000 -2,100 Descending Memphis Center